sensor_id;sensor_type;location;lat;lon;timestamp;P1;durP1;ratioP1;P2;durP2;ratioP2
43511;SDS011;34054;52.100;5.116;2023-07-28T00:00:12;10.35;;;6.82;;
43511;SDS011;34054;52.100;5.116;2023-07-28T00:00:43;5.82;;;5.22;;
43511;SDS011;34054;52.100;5.116;2023-07-28T00:01:16;10.18;;;6.93;;
43511;SDS011;34054;52.100;5.116;2023-07-28T00:01:47;6.57;;;5.95;;
43511;SDS011;34054;52.100;5.116;2023-07-28T00:02:18;7.40;;;5.68;;
43511;SDS011;34054;52.100;5.116;2023-07-28T00:02:49;18.65;;;6.15;;
43511;SDS011;34054;52.100;5.116;2023-07-28T00:03:21;16.40;;;7.05;;
43511;SDS011;34054;52.100;5.116;2023-07-28T00:03:53;7.43;;;6.68;;
43511;SDS011;34054;52.100;5.116;2023-07-28T00:04:24;6.65;;;6.03;;
43511;SDS011;34054;52.100;5.116;2023-07-28T00:04:55;11.40;;;6.93;;
43511;SDS011;34054;52.100;5.116;2023-07-28T00:05:27;7.30;;;6.43;;
43511;SDS011;34054;52.100;5.116;2023-07-28T00:05:58;17.05;;;7.05;;
43511;SDS011;34054;52.100;5.116;2023-07-28T00:06:30;12.68;;;6.38;;
43511;SDS011;34054;52.100;5.116;2023-07-28T00:07:01;6.72;;;5.40;;
43511;SDS011;34054;52.100;5.116;2023-07-28T00:07:33;10.65;;;6.40;;
43511;SDS011;34054;52.100;5.116;2023-07-28T00:08:06;9.00;;;6.68;;
43511;SDS011;34054;52.100;5.116;2023-07-28T00:08:38;15.95;;;6.05;;
43511;SDS011;34054;52.100;5.116;2023-07-28T00:09:09;6.65;;;4.90;;
43511;SDS011;34054;52.100;5.116;2023-07-28T00:09:41;9.75;;;6.47;;
43511;SDS011;34054;52.100;5.116;2023-07-28T00:10:12;14.68;;;5.88;;
43511;SDS011;34054;52.100;5.116;2023-07-28T00:10:43;5.40;;;4.90;;
43511;SDS011;34054;52.100;5.116;2023-07-28T00:11:16;7.35;;;6.53;;
43511;SDS011;34054;52.100;5.116;2023-07-28T00:11:47;5.78;;;4.25;;
43511;SDS011;34054;52.100;5.116;2023-07-28T00:12:18;6.43;;;4.72;;
43511;SDS011;34054;52.100;5.116;2023-07-28T00:12:49;10.88;;;5.13;;
43511;SDS011;34054;52.100;5.116;2023-07-28T00:13:21;5.93;;;3.95;;
43511;SDS011;34054;52.100;5.116;2023-07-28T00:13:53;6.53;;;5.07;;
43511;SDS011;34054;52.100;5.116;2023-07-28T00:14:24;10.40;;;5.30;;
43511;SDS011;34054;52.100;5.116;2023-07-28T00:14:55;14.75;;;6.80;;
43511;SDS011;34054;52.100;5.116;2023-07-28T00:15:28;13.02;;;6.40;;
43511;SDS011;34054;52.100;5.116;2023-07-28T00:16:00;8.20;;;5.65;;
43511;SDS011;34054;52.100;5.116;2023-07-28T00:16:32;6.72;;;5.38;;
43511;SDS011;34054;52.100;5.116;2023-07-28T00:17:03;8.63;;;5.65;;
43511;SDS011;34054;52.100;5.116;2023-07-28T00:17:34;7.30;;;5.20;;
43511;SDS011;34054;52.100;5.116;2023-07-28T00:18:05;8.35;;;6.90;;
43511;SDS011;34054;52.100;5.116;2023-07-28T00:18:38;7.13;;;4.72;;
43511;SDS011;34054;52.100;5.116;2023-07-28T00:19:09;11.88;;;7.85;;
43511;SDS011;34054;52.100;5.116;2023-07-28T00:19:40;8.85;;;6.90;;
43511;SDS011;34054;52.100;5.116;2023-07-28T00:20:11;9.07;;;5.32;;
43511;SDS011;34054;52.100;5.116;2023-07-28T00:20:44;8.98;;;6.75;;
43511;SDS011;34054;52.100;5.116;2023-07-28T00:21:15;6.50;;;5.38;;
43511;SDS011;34054;52.100;5.116;2023-07-28T00:21:47;9.27;;;6.65;;
43511;SDS011;34054;52.100;5.116;2023-07-28T00:22:19;17.23;;;6.38;;
43511;SDS011;34054;52.100;5.116;2023-07-28T00:22:50;5.65;;;4.95;;
43511;SDS011;34054;52.100;5.116;2023-07-28T00:23:21;6.97;;;6.28;;
43511;SDS011;34054;52.100;5.116;2023-07-28T00:23:54;7.35;;;5.85;;
43511;SDS011;34054;52.100;5.116;2023-07-28T00:24:25;7.93;;;5.72;;
43511;SDS011;34054;52.100;5.116;2023-07-28T00:24:56;9.48;;;5.75;;
43511;SDS011;34054;52.100;5.116;2023-07-28T00:25:27;8.02;;;6.40;;
43511;SDS011;34054;52.100;5.116;2023-07-28T00:25:58;12.60;;;6.72;;
43511;SDS011;34054;52.100;5.116;2023-07-28T00:26:30;13.50;;;5.18;;
43511;SDS011;34054;52.100;5.116;2023-07-28T00:27:02;6.20;;;5.60;;
43511;SDS011;34054;52.100;5.116;2023-07-28T00:27:33;13.85;;;8.05;;
43511;SDS011;34054;52.100;5.116;2023-07-28T00:28:04;8.45;;;6.80;;
43511;SDS011;34054;52.100;5.116;2023-07-28T00:28:36;7.90;;;5.80;;
43511;SDS011;34054;52.100;5.116;2023-07-28T00:29:07;7.13;;;5.82;;
43511;SDS011;34054;52.100;5.116;2023-07-28T00:29:39;7.43;;;3.75;;
43511;SDS011;34054;52.100;5.116;2023-07-28T00:30:10;6.40;;;5.50;;
43511;SDS011;34054;52.100;5.116;2023-07-28T00:30:44;9.82;;;5.75;;
43511;SDS011;34054;52.100;5.116;2023-07-28T00:31:16;7.68;;;6.30;;
43511;SDS011;34054;52.100;5.116;2023-07-28T00:31:47;5.85;;;5.00;;
43511;SDS011;34054;52.100;5.116;2023-07-28T00:32:18;8.65;;;6.53;;
43511;SDS011;34054;52.100;5.116;2023-07-28T00:32:49;10.10;;;5.03;;
43511;SDS011;34054;52.100;5.116;2023-07-28T00:33:21;6.85;;;5.88;;
43511;SDS011;34054;52.100;5.116;2023-07-28T00:33:53;9.10;;;5.47;;
43511;SDS011;34054;52.100;5.116;2023-07-28T00:34:24;8.57;;;6.30;;
43511;SDS011;34054;52.100;5.116;2023-07-28T00:34:56;11.80;;;5.65;;
43511;SDS011;34054;52.100;5.116;2023-07-28T00:35:27;8.00;;;6.70;;
43511;SDS011;34054;52.100;5.116;2023-07-28T00:35:59;9.55;;;5.55;;
43511;SDS011;34054;52.100;5.116;2023-07-28T00:36:30;5.93;;;5.25;;
43511;SDS011;34054;52.100;5.116;2023-07-28T00:37:01;6.85;;;5.25;;
43511;SDS011;34054;52.100;5.116;2023-07-28T00:37:34;6.68;;;5.97;;
43511;SDS011;34054;52.100;5.116;2023-07-28T00:38:05;12.85;;;6.82;;
43511;SDS011;34054;52.100;5.116;2023-07-28T00:38:36;7.00;;;5.75;;
43511;SDS011;34054;52.100;5.116;2023-07-28T00:39:07;13.07;;;7.80;;
43511;SDS011;34054;52.100;5.116;2023-07-28T00:39:40;13.07;;;6.20;;
43511;SDS011;34054;52.100;5.116;2023-07-28T00:40:11;7.30;;;5.53;;
43511;SDS011;34054;52.100;5.116;2023-07-28T00:40:43;8.35;;;6.55;;
43511;SDS011;34054;52.100;5.116;2023-07-28T00:41:14;9.60;;;6.55;;
43511;SDS011;34054;52.100;5.116;2023-07-28T00:41:46;7.53;;;5.38;;
43511;SDS011;34054;52.100;5.116;2023-07-28T00:42:18;10.18;;;6.53;;
43511;SDS011;34054;52.100;5.116;2023-07-28T00:42:49;7.93;;;6.78;;
43511;SDS011;34054;52.100;5.116;2023-07-28T00:43:20;7.53;;;4.57;;
43511;SDS011;34054;52.100;5.116;2023-07-28T00:43:52;8.65;;;6.25;;
43511;SDS011;34054;52.100;5.116;2023-07-28T00:44:23;7.10;;;5.03;;
43511;SDS011;34054;52.100;5.116;2023-07-28T00:44:55;7.85;;;7.05;;
43511;SDS011;34054;52.100;5.116;2023-07-28T00:45:26;8.40;;;5.35;;
43511;SDS011;34054;52.100;5.116;2023-07-28T00:46:01;6.90;;;4.60;;
43511;SDS011;34054;52.100;5.116;2023-07-28T00:46:32;10.07;;;7.00;;
43511;SDS011;34054;52.100;5.116;2023-07-28T00:47:03;7.30;;;5.75;;
43511;SDS011;34054;52.100;5.116;2023-07-28T00:47:35;5.75;;;5.25;;
43511;SDS011;34054;52.100;5.116;2023-07-28T00:48:10;7.80;;;6.00;;
43511;SDS011;34054;52.100;5.116;2023-07-28T00:48:43;9.23;;;6.82;;
43511;SDS011;34054;52.100;5.116;2023-07-28T00:49:14;6.72;;;6.10;;
43511;SDS011;34054;52.100;5.116;2023-07-28T00:49:47;10.68;;;5.45;;
43511;SDS011;34054;52.100;5.116;2023-07-28T00:50:19;13.02;;;5.55;;
43511;SDS011;34054;52.100;5.116;2023-07-28T00:50:50;8.45;;;5.80;;
43511;SDS011;34054;52.100;5.116;2023-07-28T00:51:23;10.15;;;6.53;;
43511;SDS011;34054;52.100;5.116;2023-07-28T00:51:54;8.70;;;5.82;;
43511;SDS011;34054;52.100;5.116;2023-07-28T00:52:27;8.02;;;5.72;;
43511;SDS011;34054;52.100;5.116;2023-07-28T00:52:58;7.85;;;4.68;;
43511;SDS011;34054;52.100;5.116;2023-07-28T00:53:29;15.18;;;7.10;;
43511;SDS011;34054;52.100;5.116;2023-07-28T00:54:02;9.45;;;6.43;;
43511;SDS011;34054;52.100;5.116;2023-07-28T00:54:35;9.27;;;5.40;;
43511;SDS011;34054;52.100;5.116;2023-07-28T00:55:07;10.45;;;7.47;;
43511;SDS011;34054;52.100;5.116;2023-07-28T00:55:38;11.05;;;7.13;;
43511;SDS011;34054;52.100;5.116;2023-07-28T00:56:11;6.95;;;5.88;;
43511;SDS011;34054;52.100;5.116;2023-07-28T00:56:43;14.98;;;6.90;;
43511;SDS011;34054;52.100;5.116;2023-07-28T00:57:15;15.10;;;6.88;;
43511;SDS011;34054;52.100;5.116;2023-07-28T00:57:47;11.30;;;7.60;;
43511;SDS011;34054;52.100;5.116;2023-07-28T00:58:19;6.45;;;4.88;;
43511;SDS011;34054;52.100;5.116;2023-07-28T00:58:50;13.65;;;5.70;;
43511;SDS011;34054;52.100;5.116;2023-07-28T00:59:22;6.90;;;5.05;;
43511;SDS011;34054;52.100;5.116;2023-07-28T00:59:54;11.70;;;7.43;;
43511;SDS011;34054;52.100;5.116;2023-07-28T01:00:25;8.60;;;6.10;;
43511;SDS011;34054;52.100;5.116;2023-07-28T01:00:57;10.40;;;7.18;;
43511;SDS011;34054;52.100;5.116;2023-07-28T01:01:29;12.98;;;7.35;;
43511;SDS011;34054;52.100;5.116;2023-07-28T01:02:02;10.05;;;6.32;;
43511;SDS011;34054;52.100;5.116;2023-07-28T01:02:33;6.90;;;6.20;;
43511;SDS011;34054;52.100;5.116;2023-07-28T01:03:04;11.57;;;6.85;;
43511;SDS011;34054;52.100;5.116;2023-07-28T01:03:37;8.05;;;5.45;;
43511;SDS011;34054;52.100;5.116;2023-07-28T01:04:08;10.25;;;6.82;;
43511;SDS011;34054;52.100;5.116;2023-07-28T01:04:40;9.20;;;7.03;;
43511;SDS011;34054;52.100;5.116;2023-07-28T01:05:11;11.10;;;7.65;;
43511;SDS011;34054;52.100;5.116;2023-07-28T01:05:45;16.63;;;7.93;;
43511;SDS011;34054;52.100;5.116;2023-07-28T01:06:26;14.68;;;6.68;;
43511;SDS011;34054;52.100;5.116;2023-07-28T01:07:02;10.10;;;7.47;;
43511;SDS011;34054;52.100;5.116;2023-07-28T01:07:36;8.50;;;6.35;;
43511;SDS011;34054;52.100;5.116;2023-07-28T01:08:19;11.85;;;10.35;;
43511;SDS011;34054;52.100;5.116;2023-07-28T01:08:58;13.10;;;8.48;;
43511;SDS011;34054;52.100;5.116;2023-07-28T01:09:36;9.77;;;7.20;;
43511;SDS011;34054;52.100;5.116;2023-07-28T01:10:14;10.88;;;8.30;;
43511;SDS011;34054;52.100;5.116;2023-07-28T01:10:49;12.57;;;8.98;;
43511;SDS011;34054;52.100;5.116;2023-07-28T01:11:22;11.77;;;8.88;;
43511;SDS011;34054;52.100;5.116;2023-07-28T01:11:53;14.52;;;9.45;;
43511;SDS011;34054;52.100;5.116;2023-07-28T01:12:25;26.80;;;8.63;;
43511;SDS011;34054;52.100;5.116;2023-07-28T01:12:56;15.70;;;8.98;;
43511;SDS011;34054;52.100;5.116;2023-07-28T01:13:28;14.75;;;8.55;;
43511;SDS011;34054;52.100;5.116;2023-07-28T01:13:59;10.20;;;7.97;;
43511;SDS011;34054;52.100;5.116;2023-07-28T01:14:30;9.93;;;8.80;;
43511;SDS011;34054;52.100;5.116;2023-07-28T01:15:02;9.63;;;8.35;;
43511;SDS011;34054;52.100;5.116;2023-07-28T01:15:34;8.05;;;7.15;;
43511;SDS011;34054;52.100;5.116;2023-07-28T01:16:06;9.88;;;7.43;;
43511;SDS011;34054;52.100;5.116;2023-07-28T01:16:40;9.20;;;7.30;;
43511;SDS011;34054;52.100;5.116;2023-07-28T01:17:11;8.88;;;7.82;;
43511;SDS011;34054;52.100;5.116;2023-07-28T01:17:43;14.70;;;8.80;;
43511;SDS011;34054;52.100;5.116;2023-07-28T01:18:15;15.73;;;10.98;;
43511;SDS011;34054;52.100;5.116;2023-07-28T01:18:46;14.48;;;7.35;;
43511;SDS011;34054;52.100;5.116;2023-07-28T01:19:19;7.40;;;6.53;;
43511;SDS011;34054;52.100;5.116;2023-07-28T01:19:51;12.13;;;9.48;;
43511;SDS011;34054;52.100;5.116;2023-07-28T01:20:24;13.30;;;9.00;;
43511;SDS011;34054;52.100;5.116;2023-07-28T01:20:59;16.80;;;9.15;;
43511;SDS011;34054;52.100;5.116;2023-07-28T01:21:35;22.63;;;9.27;;
43511;SDS011;34054;52.100;5.116;2023-07-28T01:22:12;12.52;;;8.18;;
43511;SDS011;34054;52.100;5.116;2023-07-28T01:23:08;10.30;;;6.20;;
43511;SDS011;34054;52.100;5.116;2023-07-28T01:23:45;19.55;;;8.70;;
43511;SDS011;34054;52.100;5.116;2023-07-28T01:24:26;11.73;;;8.55;;
43511;SDS011;34054;52.100;5.116;2023-07-28T01:25:09;9.85;;;8.25;;
43511;SDS011;34054;52.100;5.116;2023-07-28T01:25:54;9.82;;;8.18;;
43511;SDS011;34054;52.100;5.116;2023-07-28T01:26:35;16.23;;;7.50;;
43511;SDS011;34054;52.100;5.116;2023-07-28T01:27:06;11.32;;;8.95;;
43511;SDS011;34054;52.100;5.116;2023-07-28T01:27:40;16.75;;;8.65;;
43511;SDS011;34054;52.100;5.116;2023-07-28T01:28:13;15.05;;;9.38;;
43511;SDS011;34054;52.100;5.116;2023-07-28T01:28:46;9.60;;;7.45;;
43511;SDS011;34054;52.100;5.116;2023-07-28T01:29:19;15.05;;;9.60;;
43511;SDS011;34054;52.100;5.116;2023-07-28T01:29:51;10.70;;;7.82;;
43511;SDS011;34054;52.100;5.116;2023-07-28T01:30:23;15.68;;;9.75;;
43511;SDS011;34054;52.100;5.116;2023-07-28T01:30:56;17.88;;;9.05;;
43511;SDS011;34054;52.100;5.116;2023-07-28T01:31:29;16.98;;;9.80;;
43511;SDS011;34054;52.100;5.116;2023-07-28T01:32:00;8.70;;;7.38;;
43511;SDS011;34054;52.100;5.116;2023-07-28T01:32:31;23.42;;;10.65;;
43511;SDS011;34054;52.100;5.116;2023-07-28T01:33:05;16.45;;;11.32;;
43511;SDS011;34054;52.100;5.116;2023-07-28T01:33:38;9.48;;;8.57;;
43511;SDS011;34054;52.100;5.116;2023-07-28T01:34:09;13.52;;;9.10;;
43511;SDS011;34054;52.100;5.116;2023-07-28T01:34:41;7.57;;;6.45;;
43511;SDS011;34054;52.100;5.116;2023-07-28T01:35:12;16.10;;;9.57;;
43511;SDS011;34054;52.100;5.116;2023-07-28T01:35:44;12.40;;;10.50;;
43511;SDS011;34054;52.100;5.116;2023-07-28T01:36:15;13.75;;;9.80;;
43511;SDS011;34054;52.100;5.116;2023-07-28T01:36:47;15.02;;;10.50;;
43511;SDS011;34054;52.100;5.116;2023-07-28T01:37:19;12.13;;;10.93;;
43511;SDS011;34054;52.100;5.116;2023-07-28T01:37:50;14.50;;;10.50;;
43511;SDS011;34054;52.100;5.116;2023-07-28T01:38:21;17.80;;;10.98;;
43511;SDS011;34054;52.100;5.116;2023-07-28T01:38:52;15.73;;;10.77;;
43511;SDS011;34054;52.100;5.116;2023-07-28T01:39:25;11.73;;;8.10;;
43511;SDS011;34054;52.100;5.116;2023-07-28T01:39:56;16.65;;;9.85;;
43511;SDS011;34054;52.100;5.116;2023-07-28T01:40:28;13.85;;;11.27;;
43511;SDS011;34054;52.100;5.116;2023-07-28T01:40:59;13.27;;;11.15;;
43511;SDS011;34054;52.100;5.116;2023-07-28T01:41:31;13.55;;;11.07;;
43511;SDS011;34054;52.100;5.116;2023-07-28T01:42:04;12.13;;;10.93;;
43511;SDS011;34054;52.100;5.116;2023-07-28T01:42:35;16.52;;;11.55;;
43511;SDS011;34054;52.100;5.116;2023-07-28T01:43:06;19.60;;;10.07;;
43511;SDS011;34054;52.100;5.116;2023-07-28T01:43:39;13.75;;;10.10;;
43511;SDS011;34054;52.100;5.116;2023-07-28T01:44:10;11.85;;;9.93;;
43511;SDS011;34054;52.100;5.116;2023-07-28T01:44:41;17.27;;;9.93;;
43511;SDS011;34054;52.100;5.116;2023-07-28T01:45:13;11.45;;;9.77;;
43511;SDS011;34054;52.100;5.116;2023-07-28T01:45:45;17.77;;;11.20;;
43511;SDS011;34054;52.100;5.116;2023-07-28T01:46:16;11.60;;;10.18;;
43511;SDS011;34054;52.100;5.116;2023-07-28T01:46:48;20.00;;;11.85;;
43511;SDS011;34054;52.100;5.116;2023-07-28T01:47:19;14.65;;;9.50;;
43511;SDS011;34054;52.100;5.116;2023-07-28T01:47:50;15.02;;;10.85;;
43511;SDS011;34054;52.100;5.116;2023-07-28T01:48:22;17.27;;;10.98;;
43511;SDS011;34054;52.100;5.116;2023-07-28T01:48:54;14.48;;;11.05;;
43511;SDS011;34054;52.100;5.116;2023-07-28T01:49:25;14.43;;;10.07;;
43511;SDS011;34054;52.100;5.116;2023-07-28T01:49:56;11.55;;;9.65;;
43511;SDS011;34054;52.100;5.116;2023-07-28T01:50:27;24.15;;;13.30;;
43511;SDS011;34054;52.100;5.116;2023-07-28T01:50:59;21.25;;;10.73;;
43511;SDS011;34054;52.100;5.116;2023-07-28T01:51:31;14.75;;;11.13;;
43511;SDS011;34054;52.100;5.116;2023-07-28T01:52:02;13.98;;;11.27;;
43511;SDS011;34054;52.100;5.116;2023-07-28T01:52:34;15.82;;;12.15;;
43511;SDS011;34054;52.100;5.116;2023-07-28T01:53:06;14.73;;;13.23;;
43511;SDS011;34054;52.100;5.116;2023-07-28T01:53:38;12.63;;;9.88;;
43511;SDS011;34054;52.100;5.116;2023-07-28T01:54:09;14.13;;;11.35;;
43511;SDS011;34054;52.100;5.116;2023-07-28T01:54:40;12.73;;;9.93;;
43511;SDS011;34054;52.100;5.116;2023-07-28T01:55:13;18.77;;;10.05;;
43511;SDS011;34054;52.100;5.116;2023-07-28T01:55:44;12.15;;;9.32;;
43511;SDS011;34054;52.100;5.116;2023-07-28T01:56:15;11.85;;;8.80;;
43511;SDS011;34054;52.100;5.116;2023-07-28T01:56:47;13.35;;;11.98;;
43511;SDS011;34054;52.100;5.116;2023-07-28T01:57:20;11.18;;;10.00;;
43511;SDS011;34054;52.100;5.116;2023-07-28T01:57:54;18.55;;;10.98;;
43511;SDS011;34054;52.100;5.116;2023-07-28T01:58:27;14.55;;;10.55;;
43511;SDS011;34054;52.100;5.116;2023-07-28T01:58:59;10.07;;;8.70;;
43511;SDS011;34054;52.100;5.116;2023-07-28T01:59:31;15.48;;;11.25;;
43511;SDS011;34054;52.100;5.116;2023-07-28T02:00:02;14.23;;;10.90;;
43511;SDS011;34054;52.100;5.116;2023-07-28T02:00:34;21.73;;;11.05;;
43511;SDS011;34054;52.100;5.116;2023-07-28T02:01:06;12.15;;;9.70;;
43511;SDS011;34054;52.100;5.116;2023-07-28T02:01:37;17.27;;;9.60;;
43511;SDS011;34054;52.100;5.116;2023-07-28T02:02:09;19.50;;;11.68;;
43511;SDS011;34054;52.100;5.116;2023-07-28T02:02:40;17.85;;;11.27;;
43511;SDS011;34054;52.100;5.116;2023-07-28T02:03:12;11.27;;;8.23;;
43511;SDS011;34054;52.100;5.116;2023-07-28T02:03:43;18.90;;;10.27;;
43511;SDS011;34054;52.100;5.116;2023-07-28T02:04:14;11.07;;;9.85;;
43511;SDS011;34054;52.100;5.116;2023-07-28T02:04:47;15.75;;;11.10;;
43511;SDS011;34054;52.100;5.116;2023-07-28T02:05:18;11.18;;;10.07;;
43511;SDS011;34054;52.100;5.116;2023-07-28T02:05:50;13.18;;;11.07;;
43511;SDS011;34054;52.100;5.116;2023-07-28T02:06:23;15.65;;;11.73;;
43511;SDS011;34054;52.100;5.116;2023-07-28T02:06:54;12.85;;;10.35;;
43511;SDS011;34054;52.100;5.116;2023-07-28T02:07:26;14.30;;;10.07;;
43511;SDS011;34054;52.100;5.116;2023-07-28T02:07:57;9.88;;;8.82;;
43511;SDS011;34054;52.100;5.116;2023-07-28T02:08:29;16.48;;;10.27;;
43511;SDS011;34054;52.100;5.116;2023-07-28T02:09:00;10.95;;;9.73;;
43511;SDS011;34054;52.100;5.116;2023-07-28T02:09:31;19.25;;;9.07;;
43511;SDS011;34054;52.100;5.116;2023-07-28T02:10:03;13.52;;;9.90;;
43511;SDS011;34054;52.100;5.116;2023-07-28T02:10:35;15.05;;;10.25;;
43511;SDS011;34054;52.100;5.116;2023-07-28T02:11:07;11.55;;;10.45;;
43511;SDS011;34054;52.100;5.116;2023-07-28T02:11:38;15.93;;;13.00;;
43511;SDS011;34054;52.100;5.116;2023-07-28T02:12:09;15.55;;;11.70;;
43511;SDS011;34054;52.100;5.116;2023-07-28T02:12:42;28.25;;;11.90;;
43511;SDS011;34054;52.100;5.116;2023-07-28T02:13:14;19.02;;;10.43;;
43511;SDS011;34054;52.100;5.116;2023-07-28T02:13:45;21.98;;;10.52;;
43511;SDS011;34054;52.100;5.116;2023-07-28T02:14:16;20.38;;;11.90;;
43511;SDS011;34054;52.100;5.116;2023-07-28T02:14:49;27.55;;;11.93;;
43511;SDS011;34054;52.100;5.116;2023-07-28T02:15:20;15.13;;;11.90;;
43511;SDS011;34054;52.100;5.116;2023-07-28T02:15:51;14.98;;;11.57;;
43511;SDS011;34054;52.100;5.116;2023-07-28T02:16:22;17.13;;;11.82;;
43511;SDS011;34054;52.100;5.116;2023-07-28T02:16:54;16.85;;;13.07;;
43511;SDS011;34054;52.100;5.116;2023-07-28T02:17:25;14.57;;;10.35;;
43511;SDS011;34054;52.100;5.116;2023-07-28T02:17:56;16.15;;;10.30;;
43511;SDS011;34054;52.100;5.116;2023-07-28T02:18:28;12.60;;;11.20;;
43511;SDS011;34054;52.100;5.116;2023-07-28T02:19:00;19.85;;;13.13;;
43511;SDS011;34054;52.100;5.116;2023-07-28T02:19:31;25.08;;;12.77;;
43511;SDS011;34054;52.100;5.116;2023-07-28T02:20:02;14.02;;;10.27;;
43511;SDS011;34054;52.100;5.116;2023-07-28T02:20:34;12.25;;;10.20;;
43511;SDS011;34054;52.100;5.116;2023-07-28T02:21:07;19.13;;;11.93;;
43511;SDS011;34054;52.100;5.116;2023-07-28T02:21:39;15.70;;;12.38;;
43511;SDS011;34054;52.100;5.116;2023-07-28T02:22:10;17.45;;;11.75;;
43511;SDS011;34054;52.100;5.116;2023-07-28T02:22:42;24.75;;;12.27;;
43511;SDS011;34054;52.100;5.116;2023-07-28T02:23:14;12.35;;;11.02;;
43511;SDS011;34054;52.100;5.116;2023-07-28T02:23:46;14.65;;;12.65;;
43511;SDS011;34054;52.100;5.116;2023-07-28T02:24:17;11.88;;;10.77;;
43511;SDS011;34054;52.100;5.116;2023-07-28T02:24:48;25.25;;;12.95;;
43511;SDS011;34054;52.100;5.116;2023-07-28T02:25:21;12.43;;;10.32;;
43511;SDS011;34054;52.100;5.116;2023-07-28T02:25:52;22.08;;;12.60;;
43511;SDS011;34054;52.100;5.116;2023-07-28T02:26:23;23.55;;;12.15;;
43511;SDS011;34054;52.100;5.116;2023-07-28T02:26:55;15.38;;;12.02;;
43511;SDS011;34054;52.100;5.116;2023-07-28T02:27:26;15.75;;;10.55;;
43511;SDS011;34054;52.100;5.116;2023-07-28T02:27:59;16.35;;;11.85;;
43511;SDS011;34054;52.100;5.116;2023-07-28T02:28:30;18.73;;;12.80;;
43511;SDS011;34054;52.100;5.116;2023-07-28T02:29:02;17.05;;;11.77;;
43511;SDS011;34054;52.100;5.116;2023-07-28T02:29:33;18.20;;;13.23;;
43511;SDS011;34054;52.100;5.116;2023-07-28T02:30:05;15.20;;;11.30;;
43511;SDS011;34054;52.100;5.116;2023-07-28T02:30:37;21.98;;;11.75;;
43511;SDS011;34054;52.100;5.116;2023-07-28T02:31:09;24.83;;;13.60;;
43511;SDS011;34054;52.100;5.116;2023-07-28T02:31:40;14.23;;;12.82;;
43511;SDS011;34054;52.100;5.116;2023-07-28T02:32:12;16.92;;;10.50;;
43511;SDS011;34054;52.100;5.116;2023-07-28T02:32:44;16.30;;;12.52;;
43511;SDS011;34054;52.100;5.116;2023-07-28T02:33:16;14.85;;;12.75;;
43511;SDS011;34054;52.100;5.116;2023-07-28T02:33:47;15.50;;;10.73;;
43511;SDS011;34054;52.100;5.116;2023-07-28T02:34:18;26.92;;;14.05;;
43511;SDS011;34054;52.100;5.116;2023-07-28T02:34:49;16.15;;;13.10;;
43511;SDS011;34054;52.100;5.116;2023-07-28T02:35:22;14.35;;;10.40;;
43511;SDS011;34054;52.100;5.116;2023-07-28T02:35:53;20.92;;;11.68;;
43511;SDS011;34054;52.100;5.116;2023-07-28T02:36:24;11.82;;;9.95;;
43511;SDS011;34054;52.100;5.116;2023-07-28T02:36:55;19.98;;;13.13;;
43511;SDS011;34054;52.100;5.116;2023-07-28T02:37:29;13.80;;;11.63;;
43511;SDS011;34054;52.100;5.116;2023-07-28T02:38:00;14.52;;;12.13;;
43511;SDS011;34054;52.100;5.116;2023-07-28T02:38:31;22.45;;;13.38;;
43511;SDS011;34054;52.100;5.116;2023-07-28T02:39:02;14.38;;;12.88;;
43511;SDS011;34054;52.100;5.116;2023-07-28T02:39:35;18.48;;;9.80;;
43511;SDS011;34054;52.100;5.116;2023-07-28T02:40:06;13.13;;;10.32;;
43511;SDS011;34054;52.100;5.116;2023-07-28T02:40:39;12.10;;;10.02;;
43511;SDS011;34054;52.100;5.116;2023-07-28T02:41:10;19.55;;;11.02;;
43511;SDS011;34054;52.100;5.116;2023-07-28T02:41:42;11.82;;;10.40;;
43511;SDS011;34054;52.100;5.116;2023-07-28T02:42:14;11.70;;;8.68;;
43511;SDS011;34054;52.100;5.116;2023-07-28T02:42:45;9.75;;;8.52;;
43511;SDS011;34054;52.100;5.116;2023-07-28T02:43:18;14.57;;;9.60;;
43511;SDS011;34054;52.100;5.116;2023-07-28T02:43:50;21.92;;;12.52;;
43511;SDS011;34054;52.100;5.116;2023-07-28T02:44:21;12.57;;;11.38;;
43511;SDS011;34054;52.100;5.116;2023-07-28T02:44:52;13.38;;;11.75;;
43511;SDS011;34054;52.100;5.116;2023-07-28T02:45:24;12.25;;;9.45;;
43511;SDS011;34054;52.100;5.116;2023-07-28T02:45:56;24.25;;;11.52;;
43511;SDS011;34054;52.100;5.116;2023-07-28T02:46:28;22.60;;;11.88;;
43511;SDS011;34054;52.100;5.116;2023-07-28T02:46:59;22.02;;;10.77;;
43511;SDS011;34054;52.100;5.116;2023-07-28T02:47:31;25.88;;;11.23;;
43511;SDS011;34054;52.100;5.116;2023-07-28T02:48:03;12.07;;;10.07;;
43511;SDS011;34054;52.100;5.116;2023-07-28T02:48:34;18.05;;;11.00;;
43511;SDS011;34054;52.100;5.116;2023-07-28T02:49:05;20.35;;;9.65;;
43511;SDS011;34054;52.100;5.116;2023-07-28T02:49:40;15.13;;;11.50;;
43511;SDS011;34054;52.100;5.116;2023-07-28T02:50:11;12.90;;;11.00;;
43511;SDS011;34054;52.100;5.116;2023-07-28T02:50:45;18.58;;;13.18;;
43511;SDS011;34054;52.100;5.116;2023-07-28T02:51:16;16.63;;;10.20;;
43511;SDS011;34054;52.100;5.116;2023-07-28T02:51:49;15.80;;;10.00;;
43511;SDS011;34054;52.100;5.116;2023-07-28T02:52:20;27.02;;;10.68;;
43511;SDS011;34054;52.100;5.116;2023-07-28T02:52:51;16.70;;;9.80;;
43511;SDS011;34054;52.100;5.116;2023-07-28T02:53:22;13.70;;;9.50;;
43511;SDS011;34054;52.100;5.116;2023-07-28T02:53:54;14.80;;;10.02;;
43511;SDS011;34054;52.100;5.116;2023-07-28T02:54:25;29.73;;;15.00;;
43511;SDS011;34054;52.100;5.116;2023-07-28T02:54:57;11.05;;;9.18;;
43511;SDS011;34054;52.100;5.116;2023-07-28T02:55:28;12.77;;;10.45;;
43511;SDS011;34054;52.100;5.116;2023-07-28T02:56:00;17.55;;;11.13;;
43511;SDS011;34054;52.100;5.116;2023-07-28T02:56:31;12.15;;;10.93;;
43511;SDS011;34054;52.100;5.116;2023-07-28T02:57:08;15.90;;;11.73;;
43511;SDS011;34054;52.100;5.116;2023-07-28T02:57:41;13.73;;;8.70;;
43511;SDS011;34054;52.100;5.116;2023-07-28T02:58:12;17.67;;;10.25;;
43511;SDS011;34054;52.100;5.116;2023-07-28T02:58:44;11.27;;;10.13;;
43511;SDS011;34054;52.100;5.116;2023-07-28T02:59:16;16.08;;;10.10;;
43511;SDS011;34054;52.100;5.116;2023-07-28T02:59:48;21.40;;;9.07;;
43511;SDS011;34054;52.100;5.116;2023-07-28T03:00:19;13.70;;;10.05;;
43511;SDS011;34054;52.100;5.116;2023-07-28T03:00:51;14.38;;;8.95;;
43511;SDS011;34054;52.100;5.116;2023-07-28T03:01:23;13.57;;;9.25;;
43511;SDS011;34054;52.100;5.116;2023-07-28T03:01:55;22.67;;;10.63;;
43511;SDS011;34054;52.100;5.116;2023-07-28T03:02:28;17.17;;;11.20;;
43511;SDS011;34054;52.100;5.116;2023-07-28T03:02:59;11.02;;;9.85;;
43511;SDS011;34054;52.100;5.116;2023-07-28T03:03:31;15.40;;;9.52;;
43511;SDS011;34054;52.100;5.116;2023-07-28T03:04:02;18.02;;;10.90;;
43511;SDS011;34054;52.100;5.116;2023-07-28T03:04:34;14.38;;;10.05;;
43511;SDS011;34054;52.100;5.116;2023-07-28T03:05:05;26.83;;;13.10;;
43511;SDS011;34054;52.100;5.116;2023-07-28T03:05:38;22.25;;;10.77;;
43511;SDS011;34054;52.100;5.116;2023-07-28T03:06:10;17.50;;;10.70;;
43511;SDS011;34054;52.100;5.116;2023-07-28T03:06:41;14.23;;;11.23;;
43511;SDS011;34054;52.100;5.116;2023-07-28T03:07:13;13.02;;;10.00;;
43511;SDS011;34054;52.100;5.116;2023-07-28T03:07:46;13.13;;;10.50;;
43511;SDS011;34054;52.100;5.116;2023-07-28T03:08:18;15.18;;;11.75;;
43511;SDS011;34054;52.100;5.116;2023-07-28T03:08:49;16.13;;;11.45;;
43511;SDS011;34054;52.100;5.116;2023-07-28T03:09:21;22.60;;;12.13;;
43511;SDS011;34054;52.100;5.116;2023-07-28T03:09:53;25.50;;;10.82;;
43511;SDS011;34054;52.100;5.116;2023-07-28T03:10:24;21.58;;;13.77;;